MDT,Max TemperatureF,Mean TemperatureF,Min TemperatureF,Max Dew PointF,MeanDew PointF,Min DewpointF,Max Humidity, Mean Humidity, Min Humidity, Max Sea Level PressureIn, Mean Sea Level PressureIn, Min Sea Level PressureIn, Max VisibilityMiles, Mean VisibilityMiles, Min VisibilityMiles, Max Wind SpeedMPH, Mean Wind SpeedMPH, Max Gust SpeedMPH,PrecipitationIn, CloudCover, Events, WindDirDegrees
2012-10-1,70,59,48,45,35,26,72,43,21,30.33,30.24,30.17,10.0,10.0,7.0,24,13,30,0.00,1,,357
2012-10-2,85,61,37,40,32,25,91,43,11,30.17,29.97,29.86,10.0,10.0,10.0,10,4,17,0.00,0,,248
2012-10-3,87,62,36,36,30,22,69,43,9,30.36,29.98,29.83,10.0,9.7,5.0,44,12,54,0.00,0,,289
2012-10-4,50,40,31,27,24,20,76,55,32,30.39,30.32,30.25,10.0,10.0,10.0,20,9,23,0.00,3,,28
2012-10-5,38,34,30,32,29,22,99,84,66,30.34,30.27,30.19,10.0,9.1,3.0,20,11,26,0.00,7,,80
2012-10-6,34,30,26,32,30,25,100,93,83,30.32,30.29,30.23,10.0,7.0,1.2,18,10,21,0.00,6,Rain,71
2012-10-7,55,38,21,32,22,15,98,63,20,30.27,30.14,30.04,10.0,9.9,3.0,13,3,18,0.00,0,,288
2012-10-8,72,49,26,28,20,13,82,43,11,30.04,29.93,29.83,10.0,10.0,10.0,14,7,,0.00,0,,267
2012-10-9,49,42,34,38,33,22,95,75,41,30.22,30.08,29.84,10.0,10.0,10.0,22,9,29,0.00,3,,35
2012-10-10,59,43,27,37,33,27,96,72,41,30.21,30.09,29.97,10.0,9.8,7.0,10,3,,0.00,0,,353
2012-10-11,59,46,34,38,34,29,82,62,37,30.29,30.13,29.97,10.0,9.1,5.0,24,9,28,0.00,1,,36
2012-10-12,66,49,32,38,33,28,85,62,32,30.27,30.05,29.87,10.0,10.0,10.0,14,8,22,0.00,1,Thunderstorm,132
2012-10-13,57,48,39,50,41,35,92,70,50,30.11,29.91,29.84,10.0,9.8,5.0,26,14,34,0.00,5,Rain-Thunderstorm,309
2012-10-14,71,58,43,43,35,31,75,49,23,30.28,30.19,30.12,10.0,10.0,10.0,18,12,23,0.00,2,,288
2012-10-15,78,56,34,39,30,23,94,46,14,30.15,29.99,29.87,10.0,10.0,10.0,17,7,,0.00,0,,253
2012-10-16,78,60,43,43,29,22,64,31,13,29.91,29.72,29.54,10.0,10.0,7.0,40,13,53,0.00,1,Rain,254
2012-10-17,58,46,34,37,19,3,87,38,11,30.03,29.86,29.68,10.0,10.0,10.0,34,20,43,0.00,2,,331
2012-10-18,60,46,31,20,13,8,59,32,13,30.09,30.05,30.02,10.0,9.9,7.0,45,22,53,0.00,0,,343
2012-10-19,73,50,27,24,18,12,65,33,12,30.10,29.96,29.84,10.0,10.0,10.0,14,6,,0.00,0,,262
2012-10-20,72,55,38,29,25,21,61,34,15,29.85,29.77,29.69,10.0,10.0,10.0,12,6,,0.00,0,,249
2012-10-21,69,54,38,37,31,20,74,48,28,29.94,29.83,29.70,10.0,10.0,10.0,16,10,20,0.00,0,,6
2012-10-22,67,50,32,43,38,32,100,73,35,29.97,29.86,29.72,10.0,7.8,0.2,20,9,22,0.00,2,,80
2012-10-23,79,56,32,38,30,18,97,46,11,29.85,29.74,29.69,10.0,9.7,5.0,29,8,37,0.00,0,,330
2012-10-24,51,40,29,38,35,28,99,74,52,30.03,29.90,29.78,10.0,8.2,0.8,26,11,37,0.00,8,,24
2012-10-25,34,28,22,28,26,21,97,88,67,30.30,30.20,30.05,10.0,7.0,0.2,16,8,,0.00,5,,360
2012-10-26,34,28,23,27,26,22,96,88,72,30.47,30.35,30.20,10.0,7.3,1.0,12,6,,0.00,5,,112
2012-10-27,48,36,24,32,28,23,96,77,46,30.19,30.13,30.09,10.0,9.1,2.5,15,5,,0.00,4,,200
2012-10-28,60,45,30,35,30,26,90,63,31,30.14,30.08,30.01,10.0,9.8,2.5,9,3,29,0.00,3,,211
2012-10-29,71,52,32,39,34,31,96,65,23,30.13,30.10,30.06,10.0,9.3,5.0,14,8,,0.00,2,,259
2012-10-30,71,54,36,38,34,28,90,51,20,30.16,30.11,30.07,10.0,10.0,10.0,17,9,16,0.00,0,,289
2012-10-31,73,54,34,37,31,24,90,51,16,30.16,30.13,30.09,10.0,10.0,10.0,15,9,23,0.00,0,,296